sensor_id;sensor_type;location;lat;lon;timestamp;P1;durP1;ratioP1;P2;durP2;ratioP2
3565;SDS011;1797;51.844;7.684;2023-05-06T00:01:32;3.20;;;1.00;;
3565;SDS011;1797;51.844;7.684;2023-05-06T00:03:58;1.05;;;0.98;;
3565;SDS011;1797;51.844;7.684;2023-05-06T00:06:24;0.70;;;0.70;;
3565;SDS011;1797;51.844;7.684;2023-05-06T00:08:51;0.80;;;0.70;;
3565;SDS011;1797;51.844;7.684;2023-05-06T00:11:17;0.70;;;0.70;;
3565;SDS011;1797;51.844;7.684;2023-05-06T00:13:42;1.80;;;1.40;;
3565;SDS011;1797;51.844;7.684;2023-05-06T00:16:08;1.00;;;0.75;;
3565;SDS011;1797;51.844;7.684;2023-05-06T00:18:33;0.60;;;0.60;;
3565;SDS011;1797;51.844;7.684;2023-05-06T00:20:59;0.50;;;0.50;;
3565;SDS011;1797;51.844;7.684;2023-05-06T00:23:25;1.27;;;1.17;;
3565;SDS011;1797;51.844;7.684;2023-05-06T00:25:52;0.87;;;0.50;;
3565;SDS011;1797;51.844;7.684;2023-05-06T00:28:18;0.93;;;0.93;;
3565;SDS011;1797;51.844;7.684;2023-05-06T00:30:43;1.50;;;0.50;;
3565;SDS011;1797;51.844;7.684;2023-05-06T00:33:09;0.60;;;0.53;;
3565;SDS011;1797;51.844;7.684;2023-05-06T00:35:34;0.63;;;0.60;;
3565;SDS011;1797;51.844;7.684;2023-05-06T00:38:07;1.47;;;1.27;;
3565;SDS011;1797;51.844;7.684;2023-05-06T00:40:34;0.90;;;0.90;;
3565;SDS011;1797;51.844;7.684;2023-05-06T00:43:00;0.98;;;0.98;;
3565;SDS011;1797;51.844;7.684;2023-05-06T00:45:26;0.60;;;0.40;;
3565;SDS011;1797;51.844;7.684;2023-05-06T00:47:51;0.90;;;0.80;;
3565;SDS011;1797;51.844;7.684;2023-05-06T00:50:17;0.80;;;0.80;;
3565;SDS011;1797;51.844;7.684;2023-05-06T00:52:43;2.17;;;1.00;;
3565;SDS011;1797;51.844;7.684;2023-05-06T00:55:10;1.30;;;1.30;;
3565;SDS011;1797;51.844;7.684;2023-05-06T00:57:36;1.70;;;1.10;;
3565;SDS011;1797;51.844;7.684;2023-05-06T01:00:03;0.70;;;0.70;;
3565;SDS011;1797;51.844;7.684;2023-05-06T01:02:31;0.82;;;0.82;;
3565;SDS011;1797;51.844;7.684;2023-05-06T01:04:56;0.50;;;0.50;;
3565;SDS011;1797;51.844;7.684;2023-05-06T01:08:05;0.60;;;0.60;;
3565;SDS011;1797;51.844;7.684;2023-05-06T01:15:41;1.90;;;1.00;;
3565;SDS011;1797;51.844;7.684;2023-05-06T01:18:12;0.80;;;0.80;;
3565;SDS011;1797;51.844;7.684;2023-05-06T01:20:41;1.30;;;0.70;;
3565;SDS011;1797;51.844;7.684;2023-05-06T01:23:13;1.08;;;0.98;;
3565;SDS011;1797;51.844;7.684;2023-05-06T01:25:39;2.42;;;1.70;;
3565;SDS011;1797;51.844;7.684;2023-05-06T01:28:05;1.80;;;1.50;;
3565;SDS011;1797;51.844;7.684;2023-05-06T01:30:37;1.40;;;1.00;;
3565;SDS011;1797;51.844;7.684;2023-05-06T01:33:12;1.70;;;1.10;;
3565;SDS011;1797;51.844;7.684;2023-05-06T01:35:47;1.65;;;1.48;;
3565;SDS011;1797;51.844;7.684;2023-05-06T01:41:33;0.40;;;0.40;;
3565;SDS011;1797;51.844;7.684;2023-05-06T01:44:01;0.63;;;0.38;;
3565;SDS011;1797;51.844;7.684;2023-05-06T01:46:29;0.90;;;0.80;;
3565;SDS011;1797;51.844;7.684;2023-05-06T01:48:56;0.70;;;0.60;;
3565;SDS011;1797;51.844;7.684;2023-05-06T01:51:24;1.10;;;0.50;;
3565;SDS011;1797;51.844;7.684;2023-05-06T01:53:50;0.40;;;0.38;;
3565;SDS011;1797;51.844;7.684;2023-05-06T01:56:16;1.70;;;1.60;;
3565;SDS011;1797;51.844;7.684;2023-05-06T01:58:41;3.00;;;1.40;;
3565;SDS011;1797;51.844;7.684;2023-05-06T02:01:07;0.60;;;0.60;;
3565;SDS011;1797;51.844;7.684;2023-05-06T02:03:32;0.85;;;0.82;;
3565;SDS011;1797;51.844;7.684;2023-05-06T02:05:58;1.10;;;1.00;;
3565;SDS011;1797;51.844;7.684;2023-05-06T02:08:24;0.80;;;0.80;;
3565;SDS011;1797;51.844;7.684;2023-05-06T02:10:49;0.70;;;0.50;;
3565;SDS011;1797;51.844;7.684;2023-05-06T02:13:17;1.10;;;1.00;;
3565;SDS011;1797;51.844;7.684;2023-05-06T02:15:42;1.90;;;1.45;;
3565;SDS011;1797;51.844;7.684;2023-05-06T02:18:08;1.30;;;1.20;;
3565;SDS011;1797;51.844;7.684;2023-05-06T02:20:33;0.70;;;0.50;;
3565;SDS011;1797;51.844;7.684;2023-05-06T02:22:59;1.33;;;1.10;;
3565;SDS011;1797;51.844;7.684;2023-05-06T02:25:25;1.27;;;1.17;;
3565;SDS011;1797;51.844;7.684;2023-05-06T02:27:50;1.70;;;1.60;;
3565;SDS011;1797;51.844;7.684;2023-05-06T02:30:16;1.20;;;0.80;;
3565;SDS011;1797;51.844;7.684;2023-05-06T02:32:41;0.60;;;0.60;;
3565;SDS011;1797;51.844;7.684;2023-05-06T02:35:07;1.67;;;0.80;;
3565;SDS011;1797;51.844;7.684;2023-05-06T02:37:33;1.60;;;0.88;;
3565;SDS011;1797;51.844;7.684;2023-05-06T02:39:58;0.63;;;0.63;;
3565;SDS011;1797;51.844;7.684;2023-05-06T02:42:24;1.00;;;1.00;;
3565;SDS011;1797;51.844;7.684;2023-05-06T02:44:49;0.50;;;0.50;;
3565;SDS011;1797;51.844;7.684;2023-05-06T02:47:15;0.53;;;0.53;;
3565;SDS011;1797;51.844;7.684;2023-05-06T02:49:41;4.60;;;1.53;;
3565;SDS011;1797;51.844;7.684;2023-05-06T02:52:06;2.40;;;1.80;;
3565;SDS011;1797;51.844;7.684;2023-05-06T02:54:32;1.80;;;0.90;;
3565;SDS011;1797;51.844;7.684;2023-05-06T02:56:57;3.60;;;2.40;;
3565;SDS011;1797;51.844;7.684;2023-05-06T02:59:23;2.60;;;1.60;;
3565;SDS011;1797;51.844;7.684;2023-05-06T03:01:49;0.70;;;0.70;;
3565;SDS011;1797;51.844;7.684;2023-05-06T03:04:14;1.10;;;0.80;;
3565;SDS011;1797;51.844;7.684;2023-05-06T03:06:40;0.75;;;0.57;;
3565;SDS011;1797;51.844;7.684;2023-05-06T03:09:05;0.40;;;0.40;;
3565;SDS011;1797;51.844;7.684;2023-05-06T03:11:32;1.70;;;1.40;;
3565;SDS011;1797;51.844;7.684;2023-05-06T03:13:58;0.90;;;0.90;;
3565;SDS011;1797;51.844;7.684;2023-05-06T03:16:23;0.50;;;0.30;;
3565;SDS011;1797;51.844;7.684;2023-05-06T03:18:49;3.15;;;0.85;;
3565;SDS011;1797;51.844;7.684;2023-05-06T03:21:14;1.90;;;0.80;;
3565;SDS011;1797;51.844;7.684;2023-05-06T03:23:40;1.90;;;1.30;;
3565;SDS011;1797;51.844;7.684;2023-05-06T03:26:05;0.80;;;0.50;;
3565;SDS011;1797;51.844;7.684;2023-05-06T03:28:31;0.60;;;0.60;;
3565;SDS011;1797;51.844;7.684;2023-05-06T03:30:57;1.00;;;0.90;;
3565;SDS011;1797;51.844;7.684;2023-05-06T03:33:22;0.40;;;0.30;;
3565;SDS011;1797;51.844;7.684;2023-05-06T03:35:48;1.00;;;1.00;;
3565;SDS011;1797;51.844;7.684;2023-05-06T03:38:13;1.60;;;0.90;;
3565;SDS011;1797;51.844;7.684;2023-05-06T03:40:39;2.17;;;1.47;;
3565;SDS011;1797;51.844;7.684;2023-05-06T03:43:04;1.70;;;1.10;;
3565;SDS011;1797;51.844;7.684;2023-05-06T03:45:30;1.00;;;0.90;;
3565;SDS011;1797;51.844;7.684;2023-05-06T03:47:56;0.80;;;0.67;;
3565;SDS011;1797;51.844;7.684;2023-05-06T03:50:21;1.00;;;0.70;;
3565;SDS011;1797;51.844;7.684;2023-05-06T03:52:47;0.40;;;0.40;;
3565;SDS011;1797;51.844;7.684;2023-05-06T03:55:12;0.90;;;0.90;;
3565;SDS011;1797;51.844;7.684;2023-05-06T03:57:38;0.80;;;0.80;;
3565;SDS011;1797;51.844;7.684;2023-05-06T04:00:04;1.50;;;1.40;;
3565;SDS011;1797;51.844;7.684;2023-05-06T04:02:30;1.10;;;0.80;;
3565;SDS011;1797;51.844;7.684;2023-05-06T04:04:58;0.80;;;0.70;;
3565;SDS011;1797;51.844;7.684;2023-05-06T04:07:24;0.50;;;0.40;;
3565;SDS011;1797;51.844;7.684;2023-05-06T04:09:50;0.60;;;0.60;;
3565;SDS011;1797;51.844;7.684;2023-05-06T04:12:15;1.60;;;1.40;;
3565;SDS011;1797;51.844;7.684;2023-05-06T04:14:41;0.70;;;0.70;;
3565;SDS011;1797;51.844;7.684;2023-05-06T04:17:06;1.40;;;1.15;;
3565;SDS011;1797;51.844;7.684;2023-05-06T04:19:32;2.38;;;2.10;;
3565;SDS011;1797;51.844;7.684;2023-05-06T04:21:57;0.70;;;0.70;;
3565;SDS011;1797;51.844;7.684;2023-05-06T04:24:23;4.50;;;1.80;;
3565;SDS011;1797;51.844;7.684;2023-05-06T04:26:49;2.40;;;0.80;;
3565;SDS011;1797;51.844;7.684;2023-05-06T04:29:14;1.23;;;1.03;;
3565;SDS011;1797;51.844;7.684;2023-05-06T04:31:40;3.30;;;1.10;;
3565;SDS011;1797;51.844;7.684;2023-05-06T04:34:06;0.80;;;0.70;;
3565;SDS011;1797;51.844;7.684;2023-05-06T04:36:31;0.60;;;0.55;;
3565;SDS011;1797;51.844;7.684;2023-05-06T04:38:57;1.52;;;1.35;;
3565;SDS011;1797;51.844;7.684;2023-05-06T04:41:23;3.53;;;2.27;;
3565;SDS011;1797;51.844;7.684;2023-05-06T04:43:49;1.90;;;1.40;;
3565;SDS011;1797;51.844;7.684;2023-05-06T04:46:15;3.20;;;1.20;;
3565;SDS011;1797;51.844;7.684;2023-05-06T04:48:41;3.17;;;1.90;;
3565;SDS011;1797;51.844;7.684;2023-05-06T04:51:06;1.47;;;1.30;;
3565;SDS011;1797;51.844;7.684;2023-05-06T04:53:33;2.10;;;1.40;;
3565;SDS011;1797;51.844;7.684;2023-05-06T04:55:58;0.90;;;0.60;;
3565;SDS011;1797;51.844;7.684;2023-05-06T04:58:24;3.85;;;0.70;;
3565;SDS011;1797;51.844;7.684;2023-05-06T05:00:50;0.57;;;0.57;;
3565;SDS011;1797;51.844;7.684;2023-05-06T05:03:15;1.90;;;1.70;;
3565;SDS011;1797;51.844;7.684;2023-05-06T05:05:41;2.92;;;2.47;;
3565;SDS011;1797;51.844;7.684;2023-05-06T05:08:06;2.40;;;2.10;;
3565;SDS011;1797;51.844;7.684;2023-05-06T05:10:34;2.28;;;2.05;;
3565;SDS011;1797;51.844;7.684;2023-05-06T05:12:59;3.63;;;1.52;;
3565;SDS011;1797;51.844;7.684;2023-05-06T05:15:25;0.60;;;0.57;;
3565;SDS011;1797;51.844;7.684;2023-05-06T05:17:51;4.03;;;1.92;;
3565;SDS011;1797;51.844;7.684;2023-05-06T05:20:16;1.58;;;1.38;;
3565;SDS011;1797;51.844;7.684;2023-05-06T05:22:42;3.90;;;1.67;;
3565;SDS011;1797;51.844;7.684;2023-05-06T05:25:07;0.80;;;0.80;;
3565;SDS011;1797;51.844;7.684;2023-05-06T05:27:33;2.20;;;2.00;;
3565;SDS011;1797;51.844;7.684;2023-05-06T05:29:59;1.63;;;1.53;;
3565;SDS011;1797;51.844;7.684;2023-05-06T05:32:25;2.90;;;1.30;;
3565;SDS011;1797;51.844;7.684;2023-05-06T05:34:51;1.88;;;1.77;;
3565;SDS011;1797;51.844;7.684;2023-05-06T05:37:16;1.10;;;1.10;;
3565;SDS011;1797;51.844;7.684;2023-05-06T05:39:42;2.90;;;1.80;;
3565;SDS011;1797;51.844;7.684;2023-05-06T05:42:08;3.50;;;1.40;;
3565;SDS011;1797;51.844;7.684;2023-05-06T05:44:33;3.30;;;0.90;;
3565;SDS011;1797;51.844;7.684;2023-05-06T05:46:59;1.17;;;1.08;;
3565;SDS011;1797;51.844;7.684;2023-05-06T05:49:25;1.55;;;1.45;;
3565;SDS011;1797;51.844;7.684;2023-05-06T05:51:51;2.07;;;1.87;;
3565;SDS011;1797;51.844;7.684;2023-05-06T05:54:16;4.80;;;0.80;;
3565;SDS011;1797;51.844;7.684;2023-05-06T05:56:42;0.50;;;0.50;;
3565;SDS011;1797;51.844;7.684;2023-05-06T05:59:07;1.10;;;1.00;;
3565;SDS011;1797;51.844;7.684;2023-05-06T06:01:33;1.00;;;0.80;;
3565;SDS011;1797;51.844;7.684;2023-05-06T06:03:59;2.30;;;2.10;;
3565;SDS011;1797;51.844;7.684;2023-05-06T06:06:24;2.50;;;2.30;;
3565;SDS011;1797;51.844;7.684;2023-05-06T06:08:50;1.30;;;0.60;;
3565;SDS011;1797;51.844;7.684;2023-05-06T06:11:16;1.98;;;1.52;;
3565;SDS011;1797;51.844;7.684;2023-05-06T06:13:42;5.90;;;2.10;;
3565;SDS011;1797;51.844;7.684;2023-05-06T06:16:07;3.07;;;2.87;;
3565;SDS011;1797;51.844;7.684;2023-05-06T06:18:33;1.77;;;1.13;;
3565;SDS011;1797;51.844;7.684;2023-05-06T06:20:59;1.80;;;1.50;;
3565;SDS011;1797;51.844;7.684;2023-05-06T06:23:24;3.50;;;1.40;;
3565;SDS011;1797;51.844;7.684;2023-05-06T06:25:50;3.03;;;1.73;;
3565;SDS011;1797;51.844;7.684;2023-05-06T06:28:15;1.20;;;1.10;;
3565;SDS011;1797;51.844;7.684;2023-05-06T06:30:41;1.70;;;1.60;;
3565;SDS011;1797;51.844;7.684;2023-05-06T06:33:07;3.30;;;1.77;;
3565;SDS011;1797;51.844;7.684;2023-05-06T06:35:32;1.65;;;1.55;;
3565;SDS011;1797;51.844;7.684;2023-05-06T06:37:58;1.80;;;1.70;;
3565;SDS011;1797;51.844;7.684;2023-05-06T06:40:24;1.70;;;1.43;;
3565;SDS011;1797;51.844;7.684;2023-05-06T06:42:50;2.37;;;1.87;;
3565;SDS011;1797;51.844;7.684;2023-05-06T06:45:15;2.60;;;1.20;;
3565;SDS011;1797;51.844;7.684;2023-05-06T06:47:41;7.03;;;3.25;;
3565;SDS011;1797;51.844;7.684;2023-05-06T06:50:07;3.72;;;2.42;;
3565;SDS011;1797;51.844;7.684;2023-05-06T06:52:33;6.20;;;1.75;;
3565;SDS011;1797;51.844;7.684;2023-05-06T06:54:59;3.90;;;2.22;;
3565;SDS011;1797;51.844;7.684;2023-05-06T06:57:26;4.80;;;1.20;;
3565;SDS011;1797;51.844;7.684;2023-05-06T06:59:51;4.15;;;2.38;;
3565;SDS011;1797;51.844;7.684;2023-05-06T07:02:21;4.28;;;2.75;;
3565;SDS011;1797;51.844;7.684;2023-05-06T07:04:46;3.00;;;1.35;;
3565;SDS011;1797;51.844;7.684;2023-05-06T07:07:12;3.70;;;2.47;;
3565;SDS011;1797;51.844;7.684;2023-05-06T07:09:38;1.92;;;1.75;;
3565;SDS011;1797;51.844;7.684;2023-05-06T07:12:04;3.03;;;2.47;;
3565;SDS011;1797;51.844;7.684;2023-05-06T07:14:30;2.60;;;1.58;;
3565;SDS011;1797;51.844;7.684;2023-05-06T07:16:56;7.93;;;2.83;;
3565;SDS011;1797;51.844;7.684;2023-05-06T07:19:22;3.83;;;2.43;;
3565;SDS011;1797;51.844;7.684;2023-05-06T07:21:47;10.20;;;2.50;;
3565;SDS011;1797;51.844;7.684;2023-05-06T07:24:13;1.30;;;1.13;;
3565;SDS011;1797;51.844;7.684;2023-05-06T07:26:38;3.60;;;1.60;;
3565;SDS011;1797;51.844;7.684;2023-05-06T07:29:04;8.05;;;2.60;;
3565;SDS011;1797;51.844;7.684;2023-05-06T07:31:33;4.35;;;2.55;;
3565;SDS011;1797;51.844;7.684;2023-05-06T07:33:59;4.13;;;3.35;;
3565;SDS011;1797;51.844;7.684;2023-05-06T07:36:25;5.00;;;2.40;;
3565;SDS011;1797;51.844;7.684;2023-05-06T07:38:51;5.03;;;2.67;;
3565;SDS011;1797;51.844;7.684;2023-05-06T07:41:17;8.18;;;1.92;;
3565;SDS011;1797;51.844;7.684;2023-05-06T07:43:43;2.57;;;2.20;;
3565;SDS011;1797;51.844;7.684;2023-05-06T07:46:09;9.33;;;3.17;;
3565;SDS011;1797;51.844;7.684;2023-05-06T07:48:35;10.60;;;3.83;;
3565;SDS011;1797;51.844;7.684;2023-05-06T07:51:01;6.45;;;3.13;;
3565;SDS011;1797;51.844;7.684;2023-05-06T07:53:27;6.88;;;3.03;;
3565;SDS011;1797;51.844;7.684;2023-05-06T07:55:53;8.33;;;2.73;;
3565;SDS011;1797;51.844;7.684;2023-05-06T07:58:21;7.63;;;3.80;;
3565;SDS011;1797;51.844;7.684;2023-05-06T08:00:46;7.13;;;3.65;;
3565;SDS011;1797;51.844;7.684;2023-05-06T08:03:12;7.80;;;3.88;;
3565;SDS011;1797;51.844;7.684;2023-05-06T08:05:37;8.30;;;4.47;;
3565;SDS011;1797;51.844;7.684;2023-05-06T08:08:03;12.30;;;4.53;;
3565;SDS011;1797;51.844;7.684;2023-05-06T08:10:29;11.57;;;4.93;;
3565;SDS011;1797;51.844;7.684;2023-05-06T08:12:55;14.25;;;6.97;;
3565;SDS011;1797;51.844;7.684;2023-05-06T08:15:20;13.40;;;5.65;;
3565;SDS011;1797;51.844;7.684;2023-05-06T08:17:46;11.25;;;3.20;;
3565;SDS011;1797;51.844;7.684;2023-05-06T08:20:12;9.93;;;5.30;;
3565;SDS011;1797;51.844;7.684;2023-05-06T08:22:38;8.93;;;3.83;;
3565;SDS011;1797;51.844;7.684;2023-05-06T08:25:03;9.68;;;3.97;;
3565;SDS011;1797;51.844;7.684;2023-05-06T08:27:29;4.25;;;2.88;;
3565;SDS011;1797;51.844;7.684;2023-05-06T08:29:55;5.35;;;3.42;;
3565;SDS011;1797;51.844;7.684;2023-05-06T08:32:21;9.10;;;4.32;;
3565;SDS011;1797;51.844;7.684;2023-05-06T08:34:46;20.90;;;6.40;;
3565;SDS011;1797;51.844;7.684;2023-05-06T08:37:12;11.82;;;3.67;;
3565;SDS011;1797;51.844;7.684;2023-05-06T08:39:38;4.18;;;3.53;;
3565;SDS011;1797;51.844;7.684;2023-05-06T08:42:03;10.20;;;5.40;;
3565;SDS011;1797;51.844;7.684;2023-05-06T08:44:29;8.70;;;5.47;;
3565;SDS011;1797;51.844;7.684;2023-05-06T08:46:55;9.07;;;5.65;;
3565;SDS011;1797;51.844;7.684;2023-05-06T08:49:21;10.00;;;4.95;;
3565;SDS011;1797;51.844;7.684;2023-05-06T08:51:47;7.15;;;4.97;;
3565;SDS011;1797;51.844;7.684;2023-05-06T08:54:16;23.00;;;5.75;;
3565;SDS011;1797;51.844;7.684;2023-05-06T08:56:43;8.75;;;4.45;;
3565;SDS011;1797;51.844;7.684;2023-05-06T08:59:11;15.88;;;6.07;;
3565;SDS011;1797;51.844;7.684;2023-05-06T09:01:37;8.18;;;5.70;;
3565;SDS011;1797;51.844;7.684;2023-05-06T09:04:03;10.35;;;4.85;;
3565;SDS011;1797;51.844;7.684;2023-05-06T09:06:31;9.82;;;4.97;;
3565;SDS011;1797;51.844;7.684;2023-05-06T09:08:58;10.80;;;5.07;;
3565;SDS011;1797;51.844;7.684;2023-05-06T09:11:27;8.43;;;3.55;;
3565;SDS011;1797;51.844;7.684;2023-05-06T09:16:42;10.60;;;4.47;;
3565;SDS011;1797;51.844;7.684;2023-05-06T09:19:09;4.00;;;3.17;;
3565;SDS011;1797;51.844;7.684;2023-05-06T09:21:35;12.07;;;4.38;;
3565;SDS011;1797;51.844;7.684;2023-05-06T09:24:05;10.87;;;5.77;;
3565;SDS011;1797;51.844;7.684;2023-05-06T09:26:32;8.38;;;4.07;;
3565;SDS011;1797;51.844;7.684;2023-05-06T09:28:59;7.73;;;3.83;;
3565;SDS011;1797;51.844;7.684;2023-05-06T09:31:26;6.90;;;5.50;;
3565;SDS011;1797;51.844;7.684;2023-05-06T09:33:52;9.30;;;5.00;;
3565;SDS011;1797;51.844;7.684;2023-05-06T09:36:19;9.57;;;3.83;;
3565;SDS011;1797;51.844;7.684;2023-05-06T09:38:45;8.40;;;5.20;;
3565;SDS011;1797;51.844;7.684;2023-05-06T09:41:11;6.18;;;4.22;;
3565;SDS011;1797;51.844;7.684;2023-05-06T09:43:37;11.83;;;4.33;;
3565;SDS011;1797;51.844;7.684;2023-05-06T09:46:06;6.10;;;4.07;;
3565;SDS011;1797;51.844;7.684;2023-05-06T09:48:32;3.58;;;3.25;;
3565;SDS011;1797;51.844;7.684;2023-05-06T09:50:58;5.63;;;4.17;;
3565;SDS011;1797;51.844;7.684;2023-05-06T09:53:24;9.20;;;3.60;;
3565;SDS011;1797;51.844;7.684;2023-05-06T09:55:52;7.78;;;5.35;;
3565;SDS011;1797;51.844;7.684;2023-05-06T09:58:20;8.70;;;4.30;;
3565;SDS011;1797;51.844;7.684;2023-05-06T10:00:46;8.25;;;4.32;;
3565;SDS011;1797;51.844;7.684;2023-05-06T10:03:13;5.15;;;3.40;;
3565;SDS011;1797;51.844;7.684;2023-05-06T10:05:40;8.95;;;3.80;;
3565;SDS011;1797;51.844;7.684;2023-05-06T10:08:07;5.88;;;3.85;;
3565;SDS011;1797;51.844;7.684;2023-05-06T10:10:34;8.30;;;4.43;;
3565;SDS011;1797;51.844;7.684;2023-05-06T10:13:04;6.55;;;4.00;;
3565;SDS011;1797;51.844;7.684;2023-05-06T10:15:30;4.63;;;2.55;;
3565;SDS011;1797;51.844;7.684;2023-05-06T10:17:57;8.43;;;4.10;;
3565;SDS011;1797;51.844;7.684;2023-05-06T10:20:25;5.18;;;3.83;;
3565;SDS011;1797;51.844;7.684;2023-05-06T10:25:38;4.53;;;2.95;;
3565;SDS011;1797;51.844;7.684;2023-05-06T10:28:07;5.43;;;3.47;;
3565;SDS011;1797;51.844;7.684;2023-05-06T10:30:34;4.55;;;2.92;;
3565;SDS011;1797;51.844;7.684;2023-05-06T10:33:05;5.28;;;3.50;;
3565;SDS011;1797;51.844;7.684;2023-05-06T10:35:46;6.35;;;4.57;;
3565;SDS011;1797;51.844;7.684;2023-05-06T10:38:22;11.13;;;5.10;;
3565;SDS011;1797;51.844;7.684;2023-05-06T10:40:48;3.70;;;2.28;;
3565;SDS011;1797;51.844;7.684;2023-05-06T10:43:25;8.80;;;2.60;;
3565;SDS011;1797;51.844;7.684;2023-05-06T10:46:02;7.80;;;4.00;;
3565;SDS011;1797;51.844;7.684;2023-05-06T10:48:33;3.75;;;3.42;;
3565;SDS011;1797;51.844;7.684;2023-05-06T10:51:22;7.22;;;3.45;;
3565;SDS011;1797;51.844;7.684;2023-05-06T10:53:56;4.60;;;2.72;;
3565;SDS011;1797;51.844;7.684;2023-05-06T10:56:22;2.95;;;2.35;;
3565;SDS011;1797;51.844;7.684;2023-05-06T10:58:48;2.15;;;1.75;;
3565;SDS011;1797;51.844;7.684;2023-05-06T11:01:14;2.10;;;1.93;;
3565;SDS011;1797;51.844;7.684;2023-05-06T11:03:43;3.58;;;2.55;;
3565;SDS011;1797;51.844;7.684;2023-05-06T11:06:09;4.40;;;4.00;;
3565;SDS011;1797;51.844;7.684;2023-05-06T11:08:34;4.00;;;3.00;;
3565;SDS011;1797;51.844;7.684;2023-05-06T11:11:00;8.95;;;3.33;;
3565;SDS011;1797;51.844;7.684;2023-05-06T11:13:46;1.70;;;1.60;;
3565;SDS011;1797;51.844;7.684;2023-05-06T11:16:39;3.45;;;2.75;;
3565;SDS011;1797;51.844;7.684;2023-05-06T11:19:17;3.20;;;2.70;;
3565;SDS011;1797;51.844;7.684;2023-05-06T11:21:47;2.55;;;2.25;;
3565;SDS011;1797;51.844;7.684;2023-05-06T11:24:14;8.52;;;3.70;;
3565;SDS011;1797;51.844;7.684;2023-05-06T11:26:46;3.08;;;2.67;;
3565;SDS011;1797;51.844;7.684;2023-05-06T11:29:14;3.20;;;2.80;;
3565;SDS011;1797;51.844;7.684;2023-05-06T11:31:41;4.50;;;3.00;;
3565;SDS011;1797;51.844;7.684;2023-05-06T11:34:08;6.00;;;3.10;;
3565;SDS011;1797;51.844;7.684;2023-05-06T11:36:36;4.38;;;2.22;;
3565;SDS011;1797;51.844;7.684;2023-05-06T11:39:12;3.30;;;1.83;;
3565;SDS011;1797;51.844;7.684;2023-05-06T11:41:38;4.88;;;2.75;;
3565;SDS011;1797;51.844;7.684;2023-05-06T11:44:07;9.18;;;3.50;;
3565;SDS011;1797;51.844;7.684;2023-05-06T11:46:34;2.47;;;1.73;;
3565;SDS011;1797;51.844;7.684;2023-05-06T11:48:59;5.10;;;2.15;;
3565;SDS011;1797;51.844;7.684;2023-05-06T11:51:25;3.00;;;1.80;;
3565;SDS011;1797;51.844;7.684;2023-05-06T11:53:53;4.53;;;1.73;;
3565;SDS011;1797;51.844;7.684;2023-05-06T11:56:41;4.90;;;2.00;;
3565;SDS011;1797;51.844;7.684;2023-05-06T11:59:11;5.60;;;2.88;;
3565;SDS011;1797;51.844;7.684;2023-05-06T12:01:39;3.97;;;1.70;;
3565;SDS011;1797;51.844;7.684;2023-05-06T12:04:05;4.20;;;2.85;;
3565;SDS011;1797;51.844;7.684;2023-05-06T12:06:32;5.10;;;1.70;;
3565;SDS011;1797;51.844;7.684;2023-05-06T12:08:59;2.55;;;2.10;;
3565;SDS011;1797;51.844;7.684;2023-05-06T12:11:26;6.50;;;2.28;;
3565;SDS011;1797;51.844;7.684;2023-05-06T12:13:51;2.25;;;1.42;;
3565;SDS011;1797;51.844;7.684;2023-05-06T12:16:17;3.80;;;1.80;;
3565;SDS011;1797;51.844;7.684;2023-05-06T12:18:43;1.45;;;1.35;;
3565;SDS011;1797;51.844;7.684;2023-05-06T12:21:09;2.20;;;1.83;;
3565;SDS011;1797;51.844;7.684;2023-05-06T12:23:34;3.80;;;2.30;;
3565;SDS011;1797;51.844;7.684;2023-05-06T12:26:00;3.17;;;2.20;;
3565;SDS011;1797;51.844;7.684;2023-05-06T12:28:29;2.90;;;2.10;;
3565;SDS011;1797;51.844;7.684;2023-05-06T12:30:55;4.70;;;2.63;;
3565;SDS011;1797;51.844;7.684;2023-05-06T12:33:21;1.80;;;1.70;;
3565;SDS011;1797;51.844;7.684;2023-05-06T12:35:47;2.20;;;1.75;;
3565;SDS011;1797;51.844;7.684;2023-05-06T12:38:15;3.42;;;1.52;;
3565;SDS011;1797;51.844;7.684;2023-05-06T12:40:42;2.38;;;2.10;;
3565;SDS011;1797;51.844;7.684;2023-05-06T12:43:09;4.28;;;1.83;;
3565;SDS011;1797;51.844;7.684;2023-05-06T12:45:36;3.55;;;2.72;;
3565;SDS011;1797;51.844;7.684;2023-05-06T12:48:03;3.80;;;2.60;;
3565;SDS011;1797;51.844;7.684;2023-05-06T12:50:38;5.53;;;1.52;;
3565;SDS011;1797;51.844;7.684;2023-05-06T12:53:05;3.83;;;1.70;;
3565;SDS011;1797;51.844;7.684;2023-05-06T12:55:33;3.30;;;2.00;;
3565;SDS011;1797;51.844;7.684;2023-05-06T12:57:59;2.00;;;1.90;;
3565;SDS011;1797;51.844;7.684;2023-05-06T13:00:25;2.10;;;1.60;;
3565;SDS011;1797;51.844;7.684;2023-05-06T13:02:51;3.13;;;2.93;;
3565;SDS011;1797;51.844;7.684;2023-05-06T13:05:16;1.20;;;1.10;;
3565;SDS011;1797;51.844;7.684;2023-05-06T13:07:42;2.67;;;2.10;;
3565;SDS011;1797;51.844;7.684;2023-05-06T13:10:07;4.93;;;3.17;;
3565;SDS011;1797;51.844;7.684;2023-05-06T13:12:33;4.90;;;2.47;;
3565;SDS011;1797;51.844;7.684;2023-05-06T13:14:59;4.60;;;1.75;;
3565;SDS011;1797;51.844;7.684;2023-05-06T13:17:25;2.58;;;1.90;;
3565;SDS011;1797;51.844;7.684;2023-05-06T13:19:51;1.88;;;1.77;;
3565;SDS011;1797;51.844;7.684;2023-05-06T13:22:17;2.72;;;2.53;;
3565;SDS011;1797;51.844;7.684;2023-05-06T13:24:43;3.20;;;1.80;;
3565;SDS011;1797;51.844;7.684;2023-05-06T13:27:09;1.70;;;1.60;;
3565;SDS011;1797;51.844;7.684;2023-05-06T13:29:35;1.30;;;1.20;;
3565;SDS011;1797;51.844;7.684;2023-05-06T13:32:01;1.42;;;0.93;;
3565;SDS011;1797;51.844;7.684;2023-05-06T13:34:27;2.00;;;1.48;;
3565;SDS011;1797;51.844;7.684;2023-05-06T13:36:53;4.32;;;1.63;;
3565;SDS011;1797;51.844;7.684;2023-05-06T13:39:20;3.08;;;1.58;;
3565;SDS011;1797;51.844;7.684;2023-05-06T13:41:46;3.17;;;1.73;;
3565;SDS011;1797;51.844;7.684;2023-05-06T13:44:14;1.08;;;1.00;;
3565;SDS011;1797;51.844;7.684;2023-05-06T13:46:40;3.78;;;1.63;;
3565;SDS011;1797;51.844;7.684;2023-05-06T13:49:06;2.08;;;1.67;;
3565;SDS011;1797;51.844;7.684;2023-05-06T13:51:31;6.80;;;1.70;;
3565;SDS011;1797;51.844;7.684;2023-05-06T13:53:58;1.47;;;1.37;;
3565;SDS011;1797;51.844;7.684;2023-05-06T13:56:24;1.20;;;1.10;;
3565;SDS011;1797;51.844;7.684;2023-05-06T13:58:50;2.13;;;1.60;;
3565;SDS011;1797;51.844;7.684;2023-05-06T14:01:17;1.90;;;1.50;;
3565;SDS011;1797;51.844;7.684;2023-05-06T14:03:44;1.60;;;1.40;;
3565;SDS011;1797;51.844;7.684;2023-05-06T14:06:09;2.38;;;1.48;;
3565;SDS011;1797;51.844;7.684;2023-05-06T14:08:35;2.30;;;1.67;;
3565;SDS011;1797;51.844;7.684;2023-05-06T14:11:01;1.33;;;1.33;;
3565;SDS011;1797;51.844;7.684;2023-05-06T14:13:29;1.23;;;1.23;;
3565;SDS011;1797;51.844;7.684;2023-05-06T14:15:56;3.20;;;1.20;;
3565;SDS011;1797;51.844;7.684;2023-05-06T14:18:21;8.50;;;1.63;;
3565;SDS011;1797;51.844;7.684;2023-05-06T14:20:47;1.73;;;1.63;;
3565;SDS011;1797;51.844;7.684;2023-05-06T14:23:12;1.85;;;1.10;;
3565;SDS011;1797;51.844;7.684;2023-05-06T14:25:38;1.60;;;1.50;;
3565;SDS011;1797;51.844;7.684;2023-05-06T14:28:04;2.78;;;1.27;;
3565;SDS011;1797;51.844;7.684;2023-05-06T14:30:30;3.38;;;1.58;;
3565;SDS011;1797;51.844;7.684;2023-05-06T14:32:56;3.60;;;1.52;;
3565;SDS011;1797;51.844;7.684;2023-05-06T14:35:22;1.30;;;1.20;;
3565;SDS011;1797;51.844;7.684;2023-05-06T14:37:48;2.60;;;1.10;;
3565;SDS011;1797;51.844;7.684;2023-05-06T14:40:14;1.08;;;0.98;;
3565;SDS011;1797;51.844;7.684;2023-05-06T14:42:40;1.15;;;0.90;;
3565;SDS011;1797;51.844;7.684;2023-05-06T14:45:05;1.80;;;1.50;;
3565;SDS011;1797;51.844;7.684;2023-05-06T14:47:33;0.90;;;0.90;;
3565;SDS011;1797;51.844;7.684;2023-05-06T14:49:59;1.90;;;1.60;;
3565;SDS011;1797;51.844;7.684;2023-05-06T14:52:25;0.70;;;0.60;;
3565;SDS011;1797;51.844;7.684;2023-05-06T14:54:51;1.53;;;1.30;;
3565;SDS011;1797;51.844;7.684;2023-05-06T14:57:16;1.10;;;1.10;;
3565;SDS011;1797;51.844;7.684;2023-05-06T14:59:42;3.33;;;1.60;;
3565;SDS011;1797;51.844;7.684;2023-05-06T15:02:08;1.85;;;1.65;;
3565;SDS011;1797;51.844;7.684;2023-05-06T15:04:34;1.30;;;1.20;;
3565;SDS011;1797;51.844;7.684;2023-05-06T15:07:00;2.10;;;1.42;;
3565;SDS011;1797;51.844;7.684;2023-05-06T15:09:26;1.48;;;1.27;;
3565;SDS011;1797;51.844;7.684;2023-05-06T15:11:52;4.90;;;1.40;;
3565;SDS011;1797;51.844;7.684;2023-05-06T15:14:18;2.10;;;1.50;;
3565;SDS011;1797;51.844;7.684;2023-05-06T15:16:44;4.07;;;2.15;;
3565;SDS011;1797;51.844;7.684;2023-05-06T15:19:10;2.10;;;1.88;;
3565;SDS011;1797;51.844;7.684;2023-05-06T15:21:36;5.43;;;1.73;;
3565;SDS011;1797;51.844;7.684;2023-05-06T15:24:02;1.83;;;1.30;;
3565;SDS011;1797;51.844;7.684;2023-05-06T15:26:28;4.00;;;1.20;;